Time;durP1;ratioP1;P1;durP2;ratioP2;P2;SDS_P1;SDS_P2;PMS_P1;PMS_P2;Temp;Humidity;BMP_temperature;BMP_pressure;BME280_temperature;BME280_humidity;BME280_pressure;Samples;Min_cycle;Max_cycle;Signal;HPM_P1;HPM_P2
2021/05/22 00:01:09;;;;;;;1.90;0.87;;;11.90;60.60;;;11.31;54.05;96749.44;5003474;28;20053;-45
2021/05/22 00:03:37;;;;;;;4.97;1.73;;;11.90;60.30;;;11.41;53.41;96762.47;5006380;28;20072;-44
2021/05/22 00:06:05;;;;;;;3.05;0.93;;;11.90;60.40;;;11.40;53.13;96787.47;5004561;28;20058;-43
2021/05/22 00:08:34;;;;;;;2.10;1.10;;;11.90;60.30;;;11.27;53.56;96796.13;5006062;28;20060;-45
2021/05/22 00:11:02;;;;;;;1.05;0.90;;;11.90;59.70;;;11.25;53.78;96776.84;5004790;28;20045;-43
2021/05/22 00:13:31;;;;;;;2.17;0.90;;;11.90;60.00;;;11.23;53.81;96769.03;5005579;28;20049;-43
2021/05/22 00:15:59;;;;;;;4.70;1.30;;;11.80;60.00;;;11.26;53.62;96774.97;5006014;28;20259;-43
2021/05/22 00:18:27;;;;;;;1.20;1.00;;;11.80;60.10;;;11.34;53.40;96789.03;5004697;28;20057;-43
2021/05/22 00:20:57;;;;;;;3.45;1.48;;;11.80;60.20;;;11.29;53.33;96795.94;5005060;28;20054;-44
2021/05/22 00:23:25;;;;;;;2.05;1.00;;;11.80;60.20;;;11.28;53.48;96804.94;5004695;28;20088;-44
2021/05/22 00:25:54;;;;;;;5.75;1.30;;;11.80;60.10;;;11.13;53.75;96796.97;5003777;28;20071;-44
2021/05/22 00:28:22;;;;;;;2.80;1.17;;;11.90;59.80;;;11.18;53.64;96778.59;5003161;28;20053;-44
2021/05/22 00:30:50;;;;;;;3.58;1.20;;;11.90;59.60;;;11.18;53.60;96781.25;5004721;28;20050;-44
2021/05/22 00:33:19;;;;;;;1.13;0.90;;;11.80;59.70;;;11.20;53.43;96771.22;5005982;28;20058;-44
2021/05/22 00:35:47;;;;;;;3.60;0.90;;;11.80;59.80;;;11.32;53.26;96787.56;5019160;28;20263;-44
2021/05/22 00:38:16;;;;;;;1.77;1.10;;;11.80;59.90;;;11.16;53.26;96794.75;5004353;28;20054;-43
2021/05/22 00:40:44;;;;;;;3.87;1.13;;;11.70;59.90;;;11.25;53.40;96789.34;5003220;28;20066;-44
2021/05/22 00:43:12;;;;;;;2.47;1.43;;;11.70;60.10;;;11.21;53.10;96803.03;5004365;28;20651;-44
2021/05/22 00:45:41;;;;;;;3.03;1.08;;;11.70;60.10;;;11.22;53.35;96801.16;5004090;28;20058;-44
2021/05/22 00:48:10;;;;;;;2.20;1.20;;;11.70;59.90;;;11.12;53.99;96808.63;5004628;28;20058;-43
2021/05/22 00:50:41;;;;;;;3.00;1.63;;;11.70;60.00;;;11.03;54.08;96792.75;5005157;28;20060;-44
2021/05/22 00:53:10;;;;;;;4.77;1.57;;;11.70;60.30;;;11.11;53.91;96790.97;5004659;28;20060;-44
2021/05/22 00:55:39;;;;;;;1.63;0.93;;;11.70;60.30;;;11.22;53.50;96794.03;5004673;28;20057;-45
2021/05/22 00:58:07;;;;;;;3.20;1.20;;;11.60;60.40;;;11.15;53.96;96798.44;5003271;28;20042;-43
2021/05/22 01:00:51;;;;;;;3.03;1.00;;;11.70;60.30;;;11.26;53.43;96810.44;5004597;28;20053;-44
2021/05/22 01:03:42;;;;;;;3.47;1.20;;;11.70;60.50;;;11.35;53.33;96817.31;5005234;28;20057;-45
2021/05/22 01:06:27;;;;;;;4.70;1.07;;;11.70;60.60;;;11.30;53.52;96822.41;5005086;28;20068;-44
2021/05/22 01:09:08;;;;;;;2.03;1.20;;;11.70;60.60;;;11.45;53.04;96810.88;4993139;28;20064;-44
2021/05/22 01:11:57;;;;;;;2.27;1.23;;;11.70;60.50;;;11.34;53.68;96822.84;5005942;28;20054;-45
2021/05/22 01:14:38;;;;;;;2.00;1.13;;;11.70;60.50;;;11.27;53.72;96832.59;5007103;28;20038;-44
2021/05/22 01:17:07;;;;;;;1.47;0.80;;;11.80;60.40;;;11.35;53.33;96819.16;5007695;28;20042;-43
2021/05/22 01:20:00;;;;;;;2.47;1.00;;;11.70;60.60;;;11.46;53.40;96842.69;5006355;28;20053;-44
2021/05/22 01:22:36;;;;;;;1.30;1.03;;;11.70;61.00;;;11.43;53.38;96851.88;5008857;28;20439;-44
2021/05/22 01:25:25;;;;;;;1.85;1.10;;;11.70;61.20;;;11.34;55.17;96887.63;5006105;28;20060;-44
2021/05/22 01:27:53;;;;;;;3.43;1.03;;;11.70;63.00;;;11.11;58.95;96894.88;5008342;28;20054;-45
2021/05/22 01:30:22;;;;;;;1.13;0.85;;;11.30;69.00;;;10.57;62.60;96923.34;5007407;28;20080;-43
2021/05/22 01:32:50;;;;;;;2.13;1.33;;;10.40;75.00;;;10.40;63.38;96922.63;5009005;28;20238;-45
2021/05/22 01:35:21;;;;;;;1.90;0.90;;;10.10;78.30;;;10.16;64.32;96922.78;5006725;28;20060;-43
2021/05/22 01:37:50;;;;;;;2.90;1.33;;;9.90;78.90;;;9.67;65.76;96910.56;5007091;28;20267;-45
2021/05/22 01:40:18;;;;;;;3.50;1.70;;;9.50;80.40;;;9.75;64.21;96915.88;5008767;28;20308;-44
2021/05/22 01:42:46;;;;;;;2.40;1.13;;;9.50;79.00;;;9.74;64.27;96922.16;5007865;28;20371;-43
2021/05/22 01:45:28;;;;;;;3.30;1.20;;;9.60;77.40;;;9.69;64.85;96907.75;5007924;28;20239;-42
2021/05/22 01:48:00;;;;;;;3.50;1.23;;;9.80;76.50;;;9.83;63.90;96896.38;5008625;28;20058;-42
2021/05/22 01:50:32;;;;;;;1.40;0.70;;;9.90;77.10;;;9.83;64.25;96902.53;5007712;28;20378;-44
2021/05/22 01:53:06;;;;;;;1.63;1.20;;;9.90;76.60;;;9.77;64.26;96905.88;5005123;28;20072;-43
2021/05/22 01:55:37;;;;;;;2.85;1.15;;;9.90;76.70;;;9.74;64.89;96902.75;5006153;28;20050;-44
2021/05/22 01:58:06;;;;;;;4.13;1.10;;;9.80;76.90;;;9.72;65.13;96910.88;5005331;28;20061;-43
2021/05/22 02:00:34;;;;;;;2.20;1.30;;;9.80;77.50;;;9.68;65.21;96904.25;5003754;28;20050;-44
2021/05/22 02:03:13;;;;;;;2.53;1.30;;;9.80;77.10;;;9.56;65.72;96913.63;4987927;28;20058;-44
2021/05/22 02:05:46;;;;;;;2.20;0.87;;;9.80;78.10;;;9.61;65.21;96904.09;4988444;28;20351;-43
2021/05/22 02:08:19;;;;;;;2.53;1.20;;;9.70;78.20;;;9.64;65.32;96890.50;4987527;28;20057;-44
2021/05/22 02:10:48;;;;;;;2.20;1.20;;;9.80;77.50;;;9.57;66.74;96901.97;4987617;28;20130;-44
2021/05/22 02:13:18;;;;;;;1.67;1.20;;;9.70;79.70;;;9.57;66.68;96902.81;4986977;28;20056;-43
2021/05/22 02:15:59;;;;;;;2.90;1.33;;;9.70;80.10;;;9.42;67.63;96929.28;4987584;28;20366;-45
2021/05/22 02:18:31;;;;;;;1.57;0.93;;;9.50;80.60;;;9.30;68.02;96895.28;4969621;28;20088;-44
2021/05/22 02:21:02;;;;;;;1.33;0.80;;;9.50;81.30;;;9.36;67.68;96871.50;4987480;28;20344;-43
2021/05/22 02:23:39;;;;;;;1.97;0.73;;;9.40;81.80;;;9.30;67.34;96871.38;4988082;28;20356;-43
2021/05/22 02:26:08;;;;;;;1.57;1.03;;;9.40;81.10;;;9.33;66.96;96863.06;4988784;28;20066;-45
2021/05/22 02:28:41;;;;;;;4.50;1.10;;;9.40;80.30;;;9.35;66.56;96861.88;4988714;28;20286;-43
2021/05/22 02:31:11;;;;;;;0.95;0.50;;;9.50;80.30;;;9.39;65.70;96851.75;4986172;28;20072;-43
2021/05/22 02:33:40;;;;;;;1.97;0.70;;;9.50;79.30;;;9.47;65.36;96846.41;4988273;28;20050;-44
2021/05/22 02:36:08;;;;;;;0.80;0.40;;;9.50;79.40;;;9.49;65.30;96848.88;4986642;28;20052;-43
2021/05/22 02:38:49;;;;;;;1.37;0.60;;;9.50;78.70;;;9.54;65.41;96849.16;4987414;28;20058;-43
2021/05/22 02:41:19;;;;;;;2.23;0.57;;;9.60;79.10;;;9.61;64.97;96842.16;4987708;28;20050;-42
2021/05/22 02:43:52;;;;;;;0.80;0.70;;;9.60;78.10;;;9.65;65.15;96849.63;4987298;28;20362;-42
2021/05/22 02:46:22;;;;;;;0.50;0.40;;;9.70;78.30;;;9.70;64.61;96849.09;4985220;28;20627;-43
2021/05/22 02:48:54;;;;;;;1.53;0.70;;;9.70;78.30;;;9.72;64.95;96846.28;4986107;28;20268;-43
2021/05/22 02:51:24;;;;;;;1.10;0.60;;;9.70;78.90;;;9.74;64.69;96852.25;4986073;28;20062;-43
2021/05/22 02:54:07;;;;;;;0.60;0.60;;;9.70;77.70;;;9.64;64.65;96858.59;4988162;28;20065;-42
2021/05/22 02:56:36;;;;;;;1.13;0.70;;;9.70;77.30;;;9.65;64.26;96859.41;4985129;28;20056;-42
2021/05/22 02:59:06;;;;;;;2.93;0.80;;;9.70;77.50;;;9.64;64.84;96860.44;4987778;28;20259;-42
2021/05/22 03:01:35;;;;;;;4.43;1.80;;;9.70;77.70;;;9.68;64.82;96852.94;4985345;28;20062;-42
2021/05/22 03:04:05;;;;;;;2.13;0.60;;;9.70;77.80;;;9.67;64.70;96860.06;4986238;28;20054;-43
2021/05/22 03:06:33;;;;;;;0.53;0.53;;;9.70;77.90;;;9.70;64.37;96864.22;4987469;28;20057;-42
2021/05/22 03:09:02;;;;;;;1.20;0.90;;;9.70;77.00;;;9.75;64.30;96867.16;4984978;28;20046;-42
2021/05/22 03:11:31;;;;;;;2.80;1.00;;;9.80;76.80;;;9.85;63.97;96867.78;4987033;28;20066;-43
2021/05/22 03:13:59;;;;;;;2.63;1.07;;;9.90;76.70;;;9.93;64.10;96870.41;4987370;28;20058;-43
2021/05/22 03:16:27;;;;;;;3.87;1.00;;;9.90;76.60;;;9.96;64.09;96866.53;4985225;28;20236;-44
2021/05/22 03:18:55;;;;;;;1.80;0.80;;;10.00;76.60;;;9.99;64.23;96871.53;4986115;28;20056;-44
2021/05/22 03:21:25;;;;;;;1.63;0.67;;;10.00;76.80;;;9.88;64.61;96861.28;4986250;28;20042;-44
2021/05/22 03:23:54;;;;;;;1.93;1.30;;;10.00;77.00;;;9.90;64.31;96868.06;4985598;28;20050;-43
2021/05/22 03:26:22;;;;;;;1.63;0.80;;;9.90;77.30;;;9.83;64.58;96860.00;4985064;28;20030;-43
2021/05/22 03:28:50;;;;;;;3.67;1.00;;;9.80;77.20;;;9.76;65.08;96864.34;4969441;28;20061;-43
2021/05/22 03:31:18;;;;;;;1.90;1.00;;;9.90;76.80;;;9.78;65.31;96864.19;4985806;28;20056;-43
2021/05/22 03:33:47;;;;;;;4.30;1.00;;;9.80;77.00;;;9.68;64.94;96859.06;4985937;28;20358;-43
2021/05/22 03:36:15;;;;;;;1.33;0.80;;;9.90;76.40;;;9.71;64.53;96864.03;4986649;28;20255;-43
2021/05/22 03:38:43;;;;;;;1.53;0.93;;;9.80;76.60;;;9.70;64.24;96858.91;4986180;28;20054;-44
2021/05/22 03:41:11;;;;;;;3.77;1.10;;;9.80;76.30;;;9.71;64.58;96866.69;4985328;28;20049;-43
2021/05/22 03:43:39;;;;;;;1.83;0.93;;;9.80;76.70;;;9.75;64.41;96869.81;4987075;28;20050;-43
2021/05/22 03:46:08;;;;;;;4.57;1.53;;;9.70;76.60;;;9.78;64.57;96872.16;4985243;28;20072;-43
2021/05/22 03:48:36;;;;;;;2.30;1.10;;;9.70;76.90;;;9.76;64.41;96869.66;4984629;28;20054;-44
2021/05/22 03:51:04;;;;;;;3.63;1.70;;;9.80;76.80;;;9.70;64.92;96870.38;4986415;28;20056;-44
2021/05/22 03:53:33;;;;;;;3.00;1.20;;;9.70;77.20;;;9.69;64.61;96881.16;4984645;28;20073;-43
2021/05/22 03:56:01;;;;;;;1.07;0.93;;;9.70;77.10;;;9.70;64.42;96882.84;4986064;28;20053;-43
2021/05/22 03:58:29;;;;;;;2.17;1.10;;;9.80;76.80;;;9.67;64.86;96881.31;4982315;28;20054;-44
2021/05/22 04:00:58;;;;;;;1.60;1.07;;;9.80;76.90;;;9.73;64.50;96882.47;4985575;28;20248;-42
2021/05/22 04:03:26;;;;;;;2.63;1.00;;;9.80;76.70;;;9.75;64.58;96885.78;4987066;28;20085;-45
2021/05/22 04:05:54;;;;;;;1.43;0.80;;;9.80;76.50;;;9.81;64.08;96879.78;4985610;28;20083;-44
2021/05/22 04:08:23;;;;;;;1.80;0.97;;;9.80;76.30;;;9.83;63.75;96885.75;4986195;28;20054;-43
2021/05/22 04:10:51;;;;;;;2.53;0.97;;;9.90;76.20;;;9.89;64.29;96887.72;4984764;28;20060;-44
2021/05/22 04:13:19;;;;;;;3.83;1.23;;;9.90;76.40;;;9.93;63.99;96888.19;4984699;28;20076;-43
2021/05/22 04:15:47;;;;;;;4.20;0.80;;;9.80;76.70;;;9.85;63.81;96894.38;4984221;28;20064;-43
2021/05/22 04:18:16;;;;;;;3.50;1.00;;;9.80;76.50;;;9.78;64.16;96896.06;4984533;28;20062;-43
2021/05/22 04:20:44;;;;;;;2.23;1.03;;;9.80;76.40;;;9.75;63.65;96899.91;4985636;28;20582;-44
2021/05/22 04:23:14;;;;;;;3.03;1.20;;;9.70;76.30;;;9.75;63.40;96904.38;4983625;28;20072;-43
2021/05/22 04:25:43;;;;;;;1.17;0.83;;;9.70;75.70;;;9.78;63.48;96901.38;4985508;28;20058;-42
2021/05/22 04:28:11;;;;;;;2.30;1.20;;;9.70;75.60;;;9.77;63.19;96903.22;4982921;28;20081;-43
2021/05/22 04:30:40;;;;;;;3.50;1.10;;;9.70;75.40;;;9.82;62.96;96898.19;5003816;23;20034;-47
2021/05/22 04:33:08;;;;;;;1.80;1.10;;;9.80;75.10;;;9.86;62.80;96901.34;5021077;28;20057;-46
2021/05/22 04:35:36;;;;;;;4.67;1.40;;;9.70;76.20;;;9.83;62.89;96899.03;5005364;28;20045;-48
2021/05/22 04:38:04;;;;;;;1.30;0.97;;;9.70;75.10;;;9.89;62.48;96897.50;5004087;28;20347;-44
2021/05/22 04:40:32;;;;;;;1.30;0.80;;;9.70;75.30;;;9.95;62.63;96900.28;5006238;28;20262;-44
2021/05/22 04:43:01;;;;;;;1.33;0.90;;;9.80;75.50;;;9.98;62.36;96901.75;5011241;28;20065;-44
2021/05/22 04:45:29;;;;;;;1.70;0.73;;;9.80;75.50;;;9.96;62.77;96903.78;5010844;28;20049;-44
2021/05/22 04:47:58;;;;;;;3.27;1.37;;;9.80;75.30;;;10.00;62.87;96902.41;5011179;28;20080;-43
2021/05/22 04:50:28;;;;;;;1.30;0.83;;;9.90;76.30;;;10.07;62.54;96891.91;5011332;28;20061;-45
2021/05/22 04:52:56;;;;;;;1.70;0.70;;;9.90;75.30;;;10.12;62.53;96901.03;5011268;28;20049;-44
2021/05/22 04:55:25;;;;;;;1.53;0.87;;;9.90;76.10;;;10.12;62.64;96898.38;5010551;28;20057;-44
2021/05/22 04:57:53;;;;;;;2.53;2.10;;;9.90;75.70;;;10.10;62.64;96904.84;5011392;28;20056;-44
2021/05/22 05:00:22;;;;;;;1.50;1.00;;;9.90;75.60;;;10.12;62.68;96902.84;5011406;28;20049;-44
2021/05/22 05:02:51;;;;;;;2.40;1.00;;;10.00;75.60;;;10.12;62.63;96902.84;5011081;28;20044;-45
2021/05/22 05:05:24;;;;;;;1.45;0.93;;;10.00;75.50;;;10.02;63.09;96903.91;5011666;28;20343;-47
2021/05/22 05:07:52;;;;;;;2.57;1.00;;;10.00;75.20;;;10.03;63.19;96907.41;5013379;28;20049;-44
2021/05/22 05:10:22;;;;;;;1.63;1.20;;;10.00;75.10;;;10.05;62.70;96914.19;5010330;28;20056;-44
2021/05/22 05:12:53;;;;;;;1.97;1.50;;;10.00;75.10;;;9.99;63.47;96904.25;5011314;28;20049;-44
2021/05/22 05:15:21;;;;;;;4.50;1.20;;;10.00;75.10;;;10.01;63.02;96904.09;5011864;28;20054;-45
2021/05/22 05:17:49;;;;;;;3.50;1.50;;;10.10;75.00;;;10.00;63.48;96902.41;5013662;28;20342;-46
2021/05/22 05:20:17;;;;;;;1.97;1.40;;;10.00;75.10;;;10.05;63.50;96908.88;5011479;28;20052;-43
2021/05/22 05:22:50;;;;;;;2.60;1.37;;;10.00;75.30;;;10.08;63.37;96914.84;5011510;28;20136;-51
2021/05/22 05:25:18;;;;;;;7.67;2.80;;;10.10;75.50;;;10.14;63.38;96917.63;5010279;28;20255;-45
2021/05/22 05:27:46;;;;;;;5.53;2.40;;;10.10;75.70;;;10.17;63.33;96913.78;5010613;28;20057;-46
2021/05/22 05:30:16;;;;;;;3.10;1.53;;;10.10;75.70;;;10.17;63.23;96922.59;5011361;28;20046;-46
2021/05/22 05:32:45;;;;;;;1.83;1.40;;;10.20;75.20;;;10.27;63.12;96921.53;5010864;28;20104;-45
2021/05/22 05:35:13;;;;;;;1.87;1.40;;;10.20;75.30;;;10.31;62.86;96926.34;5011047;28;20085;-44
2021/05/22 05:37:41;;;;;;;4.13;1.13;;;10.30;75.10;;;10.37;62.57;96925.66;5010565;28;20224;-47
2021/05/22 05:40:10;;;;;;;2.30;0.97;;;10.30;74.60;;;10.41;62.74;96918.97;5011570;28;20045;-45
2021/05/22 05:42:39;;;;;;;4.40;1.40;;;10.30;74.50;;;10.42;62.27;96915.28;5012401;28;20079;-48
2021/05/22 05:45:07;;;;;;;2.80;1.10;;;10.40;74.10;;;10.38;61.87;96927.28;5011252;28;20050;-48
2021/05/22 05:47:35;;;;;;;3.20;1.07;;;10.40;73.20;;;10.37;61.65;96920.34;5009535;28;20052;-47
2021/05/22 05:50:04;;;;;;;3.20;1.60;;;10.40;73.20;;;10.41;61.47;96926.97;5009128;28;20056;-45
2021/05/22 05:52:33;;;;;;;1.87;0.93;;;10.50;73.10;;;10.49;62.00;96933.19;5009203;28;20065;-51
2021/05/22 05:55:01;;;;;;;1.80;0.90;;;10.50;73.30;;;10.57;61.55;96935.81;5006921;28;20267;-50
2021/05/22 05:57:29;;;;;;;1.80;1.17;;;10.60;73.20;;;10.64;61.64;96931.41;5008637;28;20057;-46
2021/05/22 05:59:57;;;;;;;3.23;1.50;;;10.70;72.60;;;10.70;61.36;96935.19;5007350;28;20053;-46
2021/05/22 06:02:25;;;;;;;3.07;1.60;;;10.70;72.40;;;10.70;61.17;96936.06;5009132;28;20049;-45
2021/05/22 06:04:54;;;;;;;2.03;1.40;;;10.80;71.70;;;10.78;61.36;96924.50;5021680;28;20344;-45
2021/05/22 06:07:22;;;;;;;1.40;1.00;;;10.80;72.10;;;10.83;60.29;96927.44;5008306;28;20255;-43
2021/05/22 06:09:51;;;;;;;3.70;1.33;;;10.90;71.80;;;10.84;59.88;96929.09;5008828;28;20042;-45
2021/05/22 06:12:19;;;;;;;2.33;0.90;;;11.00;70.30;;;10.77;59.09;96928.16;5008130;28;20267;-47
2021/05/22 06:14:53;;;;;;;3.83;1.57;;;11.10;68.60;;;10.88;59.14;96935.72;5007821;28;20056;-47
2021/05/22 06:17:22;;;;;;;3.07;1.70;;;11.10;69.10;;;10.98;59.37;96938.13;5009050;28;20050;-50
2021/05/22 06:19:50;;;;;;;1.27;0.97;;;11.20;68.60;;;11.07;58.75;96949.53;5008915;28;20058;-48
2021/05/22 06:22:18;;;;;;;8.50;1.33;;;11.30;68.50;;;11.02;58.10;96932.25;5008210;28;20532;-46
2021/05/22 06:24:47;;;;;;;4.47;1.70;;;11.40;67.40;;;11.12;58.04;96947.16;5006879;28;20055;-48
2021/05/22 06:27:15;;;;;;;2.50;1.03;;;11.40;67.30;;;11.18;58.41;96939.25;5008489;28;20244;-45
2021/05/22 06:29:43;;;;;;;4.87;2.47;;;11.40;67.90;;;11.19;57.28;96945.44;5007507;28;20068;-48
2021/05/22 06:32:11;;;;;;;5.07;1.17;;;11.20;65.50;;;11.26;57.37;96943.66;5006694;28;20069;-45
2021/05/22 06:34:39;;;;;;;2.97;1.50;;;11.30;66.90;;;11.22;56.95;96937.91;5006406;28;20046;-44
2021/05/22 06:37:08;;;;;;;3.15;1.20;;;11.30;65.00;;;11.38;57.01;96947.56;5006523;28;20042;-48
2021/05/22 06:39:36;;;;;;;6.47;1.53;;;11.50;66.30;;;11.48;56.91;96946.47;5005546;28;20057;-46
2021/05/22 06:42:04;;;;;;;5.40;2.43;;;11.60;66.50;;;11.48;55.89;96951.78;5007254;28;20053;-46
2021/05/22 06:44:40;;;;;;;2.17;1.10;;;11.60;65.70;;;11.51;56.13;96938.06;5004780;28;20068;-48
2021/05/22 06:47:08;;;;;;;2.90;1.50;;;11.70;65.50;;;11.44;56.52;96943.31;5005424;28;20058;-46
2021/05/22 06:49:36;;;;;;;2.00;1.13;;;11.70;65.10;;;11.52;56.98;96940.56;5006115;28;20068;-46
2021/05/22 06:52:05;;;;;;;2.50;1.25;;;11.80;65.50;;;11.58;56.38;96942.47;5008173;28;20054;-47
2021/05/22 06:54:34;;;;;;;3.60;1.77;;;11.80;65.30;;;11.61;56.79;96942.13;5006169;28;20351;-45
2021/05/22 06:57:02;;;;;;;2.25;1.20;;;11.80;65.90;;;11.62;56.59;96945.63;5006977;28;20049;-47
2021/05/22 06:59:30;;;;;;;4.05;1.67;;;11.90;65.30;;;11.71;57.08;96941.00;5005292;28;20250;-46
2021/05/22 07:01:59;;;;;;;2.63;1.05;;;12.00;66.50;;;11.73;56.67;96938.97;5005466;28;20054;-47
2021/05/22 07:04:27;;;;;;;1.60;0.90;;;12.00;65.40;;;11.83;57.15;96939.53;5005623;28;20348;-46
2021/05/22 07:06:55;;;;;;;4.88;1.10;;;12.10;65.80;;;11.80;56.01;96945.22;5004781;28;20049;-42
2021/05/22 07:09:23;;;;;;;4.40;2.22;;;12.10;63.80;;;11.95;56.33;96946.06;5006571;28;20058;-45
2021/05/22 07:11:52;;;;;;;3.58;1.20;;;12.20;65.30;;;11.99;55.84;96944.66;5007299;28;20058;-46
2021/05/22 07:14:21;;;;;;;2.13;1.38;;;12.30;64.40;;;12.03;55.54;96945.13;5005893;28;20053;-45
2021/05/22 07:16:57;;;;;;;1.60;1.35;;;12.40;63.70;;;12.09;55.81;96940.88;5004847;28;20601;-45
2021/05/22 07:19:26;;;;;;;2.90;1.08;;;12.40;64.70;;;12.11;55.36;96946.84;5005608;28;20050;-49
2021/05/22 07:21:57;;;;;;;3.00;1.00;;;12.50;63.30;;;12.13;55.11;96937.63;5006828;28;20053;-44
2021/05/22 07:24:25;;;;;;;3.28;1.33;;;12.50;63.20;;;12.21;54.89;96940.22;5006994;28;20064;-47
2021/05/22 07:26:55;;;;;;;4.07;0.90;;;12.60;62.50;;;12.31;54.47;96947.06;5005984;28;20049;-44
2021/05/22 07:29:25;;;;;;;1.50;1.00;;;12.70;62.40;;;12.25;54.41;96953.97;5006534;28;20050;-47
2021/05/22 07:31:53;;;;;;;4.65;1.30;;;12.70;62.00;;;12.31;54.12;96947.91;5005286;28;20057;-44
2021/05/22 07:34:25;;;;;;;3.42;1.02;;;12.70;62.10;;;12.37;54.20;96949.81;5005923;28;20050;-44
2021/05/22 07:36:53;;;;;;;2.85;1.20;;;12.70;61.80;;;12.35;54.37;96951.03;5005890;28;20049;-44
2021/05/22 07:39:21;;;;;;;3.38;2.10;;;12.70;62.50;;;12.29;54.06;96944.59;5003787;28;20049;-44
2021/05/22 07:41:50;;;;;;;2.83;1.13;;;12.70;61.60;;;12.40;53.77;96944.09;5005965;28;20327;-44
2021/05/22 07:44:18;;;;;;;3.72;1.48;;;12.70;62.00;;;12.53;53.99;96950.59;5005494;28;20054;-43
2021/05/22 07:46:50;;;;;;;3.33;1.30;;;12.80;62.00;;;12.59;53.91;96953.31;5005442;28;20063;-45
2021/05/22 07:49:18;;;;;;;2.85;1.10;;;12.90;61.70;;;12.49;53.42;96944.00;5005351;28;20598;-46
2021/05/22 07:51:46;;;;;;;5.57;1.10;;;12.90;60.50;;;12.55;52.80;96946.72;5004051;28;20057;-43
2021/05/22 07:54:15;;;;;;;1.58;1.00;;;12.90;60.20;;;12.64;51.85;96963.44;5004284;28;20251;-44
2021/05/22 07:56:43;;;;;;;2.58;1.05;;;13.10;58.90;;;12.54;48.92;96970.91;5005411;28;20056;-44
2021/05/22 07:59:11;;;;;;;4.68;1.65;;;13.00;55.40;;;12.61;49.15;96956.63;5002557;28;20045;-44
2021/05/22 08:01:39;;;;;;;1.95;1.20;;;13.00;56.60;;;12.54;48.85;96953.09;5002266;28;20061;-45
2021/05/22 08:04:07;;;;;;;1.67;0.90;;;13.00;56.00;;;12.67;49.88;96962.22;5005664;28;20064;-42
2021/05/22 08:06:36;;;;;;;4.85;2.03;;;13.10;57.20;;;12.68;48.33;96959.38;5004586;28;20045;-43
2021/05/22 08:09:04;;;;;;;5.03;1.48;;;13.10;55.20;;;12.74;50.05;96958.59;5003073;28;20053;-46
2021/05/22 08:11:32;;;;;;;3.92;1.17;;;13.20;56.40;;;12.79;47.35;96958.88;4999410;28;20056;-43
2021/05/22 08:14:00;;;;;;;3.17;1.20;;;13.20;55.50;;;12.86;47.93;96956.25;5003613;28;20056;-43
2021/05/22 08:16:29;;;;;;;2.75;1.27;;;13.10;54.30;;;12.65;46.62;96948.25;5003048;28;20354;-43
2021/05/22 08:18:57;;;;;;;1.80;1.02;;;12.90;52.10;;;12.77;46.93;96946.69;5003613;28;20072;-44
2021/05/22 08:21:26;;;;;;;1.58;0.90;;;13.00;54.60;;;12.69;46.70;96947.66;5003287;28;20042;-43
2021/05/22 08:23:55;;;;;;;1.50;1.00;;;13.00;52.10;;;12.79;46.61;96945.50;5006099;28;20059;-44
2021/05/22 08:26:24;;;;;;;2.08;1.35;;;13.10;52.60;;;12.81;45.23;96937.28;5005376;28;20062;-43
2021/05/22 08:29:13;;;;;;;1.95;0.98;;;13.20;51.40;;;12.88;44.36;96940.03;5005145;28;20058;-42
2021/05/22 08:31:42;;;;;;;2.38;1.42;;;13.40;50.50;;;12.86;42.49;96945.56;5004030;28;20050;-42
2021/05/22 08:34:10;;;;;;;2.47;1.27;;;13.40;48.10;;;12.97;43.37;96933.53;5004289;28;20049;-42
2021/05/22 08:36:38;;;;;;;2.25;1.00;;;13.50;49.20;;;12.98;43.57;96940.50;5004346;28;20507;-44
2021/05/22 08:39:06;;;;;;;1.95;0.90;;;13.50;49.30;;;12.98;43.17;96952.00;5003808;28;20058;-47
2021/05/22 08:41:37;;;;;;;2.03;0.90;;;13.50;49.10;;;12.99;44.21;96926.16;5004405;28;20053;-44
2021/05/22 08:44:05;;;;;;;1.95;1.05;;;13.50;49.70;;;13.06;42.89;96939.53;5005389;28;20365;-45
2021/05/22 08:46:34;;;;;;;3.80;1.13;;;13.60;49.00;;;13.08;43.69;96940.97;5005139;28;20058;-43
2021/05/22 08:49:03;;;;;;;2.83;1.85;;;13.70;49.60;;;13.07;43.43;96930.53;5004909;28;20054;-43
2021/05/22 08:51:32;;;;;;;3.20;1.10;;;13.60;49.00;;;13.16;44.05;96930.19;5004345;28;20080;-43
2021/05/22 08:54:00;;;;;;;3.33;1.25;;;13.60;49.40;;;13.20;43.08;96926.09;5005210;28;20192;-43
2021/05/22 08:56:28;;;;;;;3.40;1.05;;;13.60;48.70;;;13.26;44.36;96924.47;5004392;28;20355;-45
2021/05/22 08:58:56;;;;;;;3.65;1.20;;;13.60;50.50;;;13.38;42.97;96916.78;5007976;28;20077;-43
2021/05/22 09:01:26;;;;;;;3.45;1.25;;;13.80;49.20;;;13.30;41.77;96928.44;5005384;28;20050;-44
2021/05/22 09:03:57;;;;;;;8.68;1.23;;;13.70;47.30;;;13.37;41.52;96913.25;5005485;28;20062;-45
2021/05/22 09:06:26;;;;;;;3.03;1.88;;;13.80;48.30;;;13.44;42.60;96926.66;5004493;28;20370;-48
2021/05/22 09:09:06;;;;;;;1.63;1.10;;;13.80;48.30;;;13.36;41.21;96918.81;5003981;28;20068;-47
2021/05/22 09:11:52;;;;;;;4.68;1.48;;;13.80;46.60;;;13.41;39.36;96923.56;5004031;28;20049;-45
2021/05/22 09:14:59;;;;;;;3.67;1.27;;;13.80;44.20;;;13.37;39.29;96929.28;5002797;28;20566;-47
2021/05/22 09:17:27;;;;;;;2.05;0.90;;;13.90;44.20;;;13.46;41.47;96918.47;4982875;28;20072;-44
2021/05/22 09:20:23;;;;;;;3.55;1.02;;;13.90;46.80;;;13.55;39.88;96917.25;4982382;28;20255;-44
2021/05/22 09:23:17;;;;;;;4.80;0.90;;;14.00;45.10;;;13.52;38.22;96915.81;4997816;28;20069;-45
2021/05/22 09:25:48;;;;;;;1.52;0.90;;;14.00;43.20;;;13.52;38.55;96928.38;5005999;28;20058;-48
2021/05/22 09:28:23;;;;;;;3.65;1.40;;;14.00;43.20;;;13.51;38.39;96913.31;5010162;28;20602;-45
2021/05/22 09:30:53;;;;;;;2.70;1.98;;;14.10;43.00;;;13.65;39.14;96924.91;5009279;28;20064;-45
2021/05/22 09:33:31;;;;;;;2.40;1.30;;;14.20;44.30;;;13.71;39.21;96919.63;5007612;28;20046;-49
2021/05/22 09:36:07;;;;;;;2.13;1.10;;;14.20;44.70;;;13.76;38.91;96922.53;5007270;28;20240;-46
2021/05/22 09:38:50;;;;;;;4.07;1.50;;;14.20;44.50;;;13.71;37.15;96914.25;5007753;28;20045;-46
2021/05/22 09:41:39;;;;;;;6.35;1.05;;;14.20;42.10;;;13.86;38.34;96906.09;5008327;28;20068;-45
2021/05/22 09:44:25;;;;;;;2.40;1.00;;;14.30;43.00;;;13.94;36.74;96915.81;5007449;28;20068;-45
2021/05/22 09:46:53;;;;;;;2.95;1.20;;;14.50;41.30;;;13.97;38.29;96918.06;5007780;28;20049;-45
2021/05/22 09:49:25;;;;;;;2.13;1.02;;;14.40;42.70;;;13.88;36.88;96921.94;5007873;28;20056;-46
2021/05/22 09:52:02;;;;;;;2.50;1.00;;;14.40;41.50;;;13.90;37.74;96920.72;5009021;28;20231;-44
2021/05/22 09:54:41;;;;;;;1.95;1.00;;;14.40;41.50;;;14.02;37.78;96914.81;5007276;28;20062;-47
2021/05/22 09:57:12;;;;;;;2.42;1.00;;;14.50;41.80;;;14.05;37.34;96912.53;5007106;28;20308;-47
2021/05/22 09:59:40;;;;;;;1.00;0.85;;;14.60;41.30;;;14.10;37.25;96920.78;5006942;28;20058;-46
2021/05/22 10:02:10;;;;;;;3.67;1.10;;;14.70;41.10;;;14.10;35.64;96914.63;5007992;28;20060;-49
2021/05/22 10:04:38;;;;;;;1.30;0.90;;;14.70;38.70;;;14.21;36.13;96911.38;5007684;28;20045;-47
2021/05/22 10:07:06;;;;;;;3.67;1.80;;;14.80;39.50;;;14.37;36.69;96916.34;5007948;28;20059;-45
2021/05/22 10:09:39;;;;;;;2.78;1.27;;;15.00;41.20;;;14.46;36.71;96921.50;5007029;28;20251;-45
2021/05/22 10:12:15;;;;;;;2.25;1.20;;;15.10;40.70;;;14.55;35.27;96912.25;5007934;28;20064;-44
2021/05/22 10:14:44;;;;;;;4.85;0.88;;;15.20;40.50;;;14.50;35.28;96928.09;5008623;28;20366;-44
2021/05/22 10:17:14;;;;;;;1.10;1.00;;;15.20;39.20;;;14.62;36.58;96918.47;5006925;28;20049;-44
2021/05/22 10:19:42;;;;;;;1.60;1.33;;;15.20;39.90;;;14.68;36.55;96924.88;5008036;28;20053;-48
2021/05/22 10:22:10;;;;;;;1.23;0.98;;;15.20;40.90;;;14.70;36.29;96928.16;5007398;28;20054;-44
2021/05/22 10:24:39;;;;;;;1.92;1.17;;;15.30;40.10;;;14.69;35.83;96918.47;5007505;28;20056;-44
2021/05/22 10:27:09;;;;;;;2.40;0.82;;;15.30;40.30;;;14.72;33.10;96940.31;5006660;28;20057;-45
2021/05/22 10:29:37;;;;;;;1.38;0.85;;;15.40;37.00;;;14.73;34.46;96925.91;5006598;28;20055;-46
2021/05/22 10:32:06;;;;;;;1.83;1.10;;;15.40;37.90;;;14.74;35.13;96927.53;5008863;28;20046;-48
2021/05/22 10:34:38;;;;;;;2.22;0.95;;;15.40;38.70;;;14.80;33.35;96917.84;5007507;28;20072;-48
2021/05/22 10:37:06;;;;;;;2.50;1.58;;;15.40;37.40;;;14.83;33.43;96932.69;5006642;28;20060;-49